sensor_id;sensor_type;location;lat;lon;timestamp;P1;durP1;ratioP1;P2;durP2;ratioP2
49578;SDS011;35483;50.828;3.228;2022-12-05T00:01:18;50.47;;;28.80;;
49578;SDS011;35483;50.828;3.228;2022-12-05T00:04:16;44.53;;;28.10;;
49578;SDS011;35483;50.828;3.228;2022-12-05T00:06:42;45.60;;;27.35;;
49578;SDS011;35483;50.828;3.228;2022-12-05T00:09:08;41.42;;;26.23;;
49578;SDS011;35483;50.828;3.228;2022-12-05T00:11:36;45.72;;;28.55;;
49578;SDS011;35483;50.828;3.228;2022-12-05T00:14:04;42.17;;;27.30;;
49578;SDS011;35483;50.828;3.228;2022-12-05T00:16:31;40.97;;;27.27;;
49578;SDS011;35483;50.828;3.228;2022-12-05T00:18:59;43.03;;;26.30;;
49578;SDS011;35483;50.828;3.228;2022-12-05T00:21:26;37.90;;;25.85;;
49578;SDS011;35483;50.828;3.228;2022-12-05T00:23:53;43.90;;;27.65;;
49578;SDS011;35483;50.828;3.228;2022-12-05T00:26:20;41.88;;;24.88;;
49578;SDS011;35483;50.828;3.228;2022-12-05T00:28:47;41.60;;;26.08;;
49578;SDS011;35483;50.828;3.228;2022-12-05T00:31:14;45.38;;;27.08;;
49578;SDS011;35483;50.828;3.228;2022-12-05T00:33:42;41.05;;;25.70;;
49578;SDS011;35483;50.828;3.228;2022-12-05T00:36:08;43.72;;;27.13;;
49578;SDS011;35483;50.828;3.228;2022-12-05T00:38:36;47.10;;;28.92;;
49578;SDS011;35483;50.828;3.228;2022-12-05T00:41:06;47.50;;;28.60;;
49578;SDS011;35483;50.828;3.228;2022-12-05T00:43:34;42.38;;;25.48;;
49578;SDS011;35483;50.828;3.228;2022-12-05T00:46:01;47.17;;;26.15;;
49578;SDS011;35483;50.828;3.228;2022-12-05T00:48:28;44.58;;;26.33;;
49578;SDS011;35483;50.828;3.228;2022-12-05T00:51:05;41.97;;;26.85;;
49578;SDS011;35483;50.828;3.228;2022-12-05T00:53:33;40.85;;;25.02;;
49578;SDS011;35483;50.828;3.228;2022-12-05T00:56:03;38.55;;;25.63;;
49578;SDS011;35483;50.828;3.228;2022-12-05T00:58:30;42.97;;;26.95;;
49578;SDS011;35483;50.828;3.228;2022-12-05T01:00:57;47.72;;;26.17;;
49578;SDS011;35483;50.828;3.228;2022-12-05T01:03:29;46.83;;;26.65;;
49578;SDS011;35483;50.828;3.228;2022-12-05T01:05:54;44.25;;;26.55;;
49578;SDS011;35483;50.828;3.228;2022-12-05T01:08:22;44.95;;;28.35;;
49578;SDS011;35483;50.828;3.228;2022-12-05T01:10:52;43.03;;;27.13;;
49578;SDS011;35483;50.828;3.228;2022-12-05T01:13:20;44.85;;;27.42;;
49578;SDS011;35483;50.828;3.228;2022-12-05T01:15:46;43.70;;;28.67;;
49578;SDS011;35483;50.828;3.228;2022-12-05T01:18:12;42.53;;;27.58;;
49578;SDS011;35483;50.828;3.228;2022-12-05T01:20:39;46.95;;;28.27;;
49578;SDS011;35483;50.828;3.228;2022-12-05T01:23:05;42.42;;;27.02;;
49578;SDS011;35483;50.828;3.228;2022-12-05T01:25:30;39.35;;;25.63;;
49578;SDS011;35483;50.828;3.228;2022-12-05T01:27:56;41.90;;;26.70;;
49578;SDS011;35483;50.828;3.228;2022-12-05T01:30:22;40.50;;;25.95;;
49578;SDS011;35483;50.828;3.228;2022-12-05T01:32:47;40.88;;;25.08;;
49578;SDS011;35483;50.828;3.228;2022-12-05T01:35:13;44.72;;;25.60;;
49578;SDS011;35483;50.828;3.228;2022-12-05T01:37:39;44.67;;;26.55;;
49578;SDS011;35483;50.828;3.228;2022-12-05T01:40:05;41.95;;;25.63;;
49578;SDS011;35483;50.828;3.228;2022-12-05T01:42:32;37.50;;;24.75;;
49578;SDS011;35483;50.828;3.228;2022-12-05T01:44:59;43.90;;;26.15;;
49578;SDS011;35483;50.828;3.228;2022-12-05T01:47:29;39.47;;;24.58;;
49578;SDS011;35483;50.828;3.228;2022-12-05T01:49:57;38.22;;;24.40;;
49578;SDS011;35483;50.828;3.228;2022-12-05T01:52:25;41.78;;;26.80;;
49578;SDS011;35483;50.828;3.228;2022-12-05T01:54:53;39.75;;;25.58;;
49578;SDS011;35483;50.828;3.228;2022-12-05T01:57:24;38.00;;;25.20;;
49578;SDS011;35483;50.828;3.228;2022-12-05T01:59:51;36.78;;;25.33;;
49578;SDS011;35483;50.828;3.228;2022-12-05T02:02:20;37.95;;;25.17;;
49578;SDS011;35483;50.828;3.228;2022-12-05T02:05:08;40.65;;;24.73;;
49578;SDS011;35483;50.828;3.228;2022-12-05T02:07:42;37.47;;;24.90;;
49578;SDS011;35483;50.828;3.228;2022-12-05T02:10:10;41.55;;;25.15;;
49578;SDS011;35483;50.828;3.228;2022-12-05T02:12:36;42.00;;;25.65;;
49578;SDS011;35483;50.828;3.228;2022-12-05T02:20:34;39.38;;;25.23;;
49578;SDS011;35483;50.828;3.228;2022-12-05T02:23:14;39.50;;;25.20;;
49578;SDS011;35483;50.828;3.228;2022-12-05T02:26:09;41.08;;;25.48;;
49578;SDS011;35483;50.828;3.228;2022-12-05T02:36:54;39.65;;;26.08;;
49578;SDS011;35483;50.828;3.228;2022-12-05T02:45:02;38.45;;;25.83;;
49578;SDS011;35483;50.828;3.228;2022-12-05T02:47:34;43.08;;;25.35;;
49578;SDS011;35483;50.828;3.228;2022-12-05T02:50:08;41.20;;;25.35;;
49578;SDS011;35483;50.828;3.228;2022-12-05T02:52:36;38.65;;;23.90;;
49578;SDS011;35483;50.828;3.228;2022-12-05T02:55:02;39.55;;;24.58;;
49578;SDS011;35483;50.828;3.228;2022-12-05T02:57:33;43.40;;;26.27;;
49578;SDS011;35483;50.828;3.228;2022-12-05T03:00:00;36.88;;;23.55;;
49578;SDS011;35483;50.828;3.228;2022-12-05T03:02:30;39.53;;;24.48;;
49578;SDS011;35483;50.828;3.228;2022-12-05T03:05:10;39.85;;;24.70;;
49578;SDS011;35483;50.828;3.228;2022-12-05T03:08:00;39.00;;;25.15;;
49578;SDS011;35483;50.828;3.228;2022-12-05T03:10:28;38.47;;;24.38;;
49578;SDS011;35483;50.828;3.228;2022-12-05T03:12:57;35.05;;;24.63;;
49578;SDS011;35483;50.828;3.228;2022-12-05T03:15:34;34.45;;;23.85;;
49578;SDS011;35483;50.828;3.228;2022-12-05T03:21:07;34.15;;;23.08;;
49578;SDS011;35483;50.828;3.228;2022-12-05T03:23:34;35.83;;;22.75;;
49578;SDS011;35483;50.828;3.228;2022-12-05T03:28:50;37.35;;;23.73;;
49578;SDS011;35483;50.828;3.228;2022-12-05T03:32:10;40.30;;;24.77;;
49578;SDS011;35483;50.828;3.228;2022-12-05T03:39:55;36.53;;;24.50;;
49578;SDS011;35483;50.828;3.228;2022-12-05T03:42:31;44.38;;;25.67;;
49578;SDS011;35483;50.828;3.228;2022-12-05T03:45:00;36.42;;;24.45;;
49578;SDS011;35483;50.828;3.228;2022-12-05T03:47:41;33.22;;;23.27;;
49578;SDS011;35483;50.828;3.228;2022-12-05T03:50:34;38.72;;;22.83;;
49578;SDS011;35483;50.828;3.228;2022-12-05T03:53:05;37.85;;;23.20;;
49578;SDS011;35483;50.828;3.228;2022-12-05T03:55:34;37.33;;;23.20;;
49578;SDS011;35483;50.828;3.228;2022-12-05T03:58:08;41.85;;;25.35;;
49578;SDS011;35483;50.828;3.228;2022-12-05T04:00:44;37.78;;;22.85;;
49578;SDS011;35483;50.828;3.228;2022-12-05T04:03:20;37.35;;;23.98;;
49578;SDS011;35483;50.828;3.228;2022-12-05T04:06:06;36.42;;;24.13;;
49578;SDS011;35483;50.828;3.228;2022-12-05T04:08:42;34.85;;;23.40;;
49578;SDS011;35483;50.828;3.228;2022-12-05T04:11:15;35.60;;;22.52;;
49578;SDS011;35483;50.828;3.228;2022-12-05T04:14:27;35.83;;;24.02;;
49578;SDS011;35483;50.828;3.228;2022-12-05T04:16:39;37.05;;;22.90;;
49578;SDS011;35483;50.828;3.228;2022-12-05T04:22:35;36.85;;;24.20;;
49578;SDS011;35483;50.828;3.228;2022-12-05T04:25:02;34.08;;;24.25;;
49578;SDS011;35483;50.828;3.228;2022-12-05T04:30:45;35.33;;;22.88;;
49578;SDS011;35483;50.828;3.228;2022-12-05T04:35:57;37.17;;;23.90;;
49578;SDS011;35483;50.828;3.228;2022-12-05T04:38:51;37.70;;;22.90;;
49578;SDS011;35483;50.828;3.228;2022-12-05T04:41:25;34.78;;;22.45;;
49578;SDS011;35483;50.828;3.228;2022-12-05T04:43:58;33.88;;;22.13;;
49578;SDS011;35483;50.828;3.228;2022-12-05T04:46:29;38.22;;;24.08;;
49578;SDS011;35483;50.828;3.228;2022-12-05T04:48:56;37.35;;;23.33;;
49578;SDS011;35483;50.828;3.228;2022-12-05T04:51:24;34.67;;;23.08;;
49578;SDS011;35483;50.828;3.228;2022-12-05T04:53:55;37.90;;;24.15;;
49578;SDS011;35483;50.828;3.228;2022-12-05T04:56:26;36.40;;;23.98;;
49578;SDS011;35483;50.828;3.228;2022-12-05T04:58:56;38.63;;;24.02;;
49578;SDS011;35483;50.828;3.228;2022-12-05T05:01:38;33.85;;;23.27;;
49578;SDS011;35483;50.828;3.228;2022-12-05T05:04:33;38.88;;;25.70;;
49578;SDS011;35483;50.828;3.228;2022-12-05T05:07:07;36.42;;;24.15;;
49578;SDS011;35483;50.828;3.228;2022-12-05T05:09:34;37.00;;;22.55;;
49578;SDS011;35483;50.828;3.228;2022-12-05T05:11:59;37.67;;;23.38;;
49578;SDS011;35483;50.828;3.228;2022-12-05T05:14:25;37.22;;;24.10;;
49578;SDS011;35483;50.828;3.228;2022-12-05T05:16:51;35.47;;;23.35;;
49578;SDS011;35483;50.828;3.228;2022-12-05T05:19:17;36.42;;;23.98;;
49578;SDS011;35483;50.828;3.228;2022-12-05T05:21:42;36.58;;;23.80;;
49578;SDS011;35483;50.828;3.228;2022-12-05T05:24:09;37.75;;;23.95;;
49578;SDS011;35483;50.828;3.228;2022-12-05T05:26:36;32.53;;;22.02;;
49578;SDS011;35483;50.828;3.228;2022-12-05T05:29:04;38.85;;;24.35;;
49578;SDS011;35483;50.828;3.228;2022-12-05T05:31:30;32.03;;;22.95;;
49578;SDS011;35483;50.828;3.228;2022-12-05T05:33:56;31.83;;;21.13;;
49578;SDS011;35483;50.828;3.228;2022-12-05T05:36:22;40.88;;;24.35;;
49578;SDS011;35483;50.828;3.228;2022-12-05T05:38:50;35.85;;;24.13;;
49578;SDS011;35483;50.828;3.228;2022-12-05T05:41:29;32.13;;;20.55;;
49578;SDS011;35483;50.828;3.228;2022-12-05T05:43:57;36.80;;;22.30;;
49578;SDS011;35483;50.828;3.228;2022-12-05T05:46:27;36.13;;;22.58;;
49578;SDS011;35483;50.828;3.228;2022-12-05T05:48:55;31.90;;;21.60;;
49578;SDS011;35483;50.828;3.228;2022-12-05T05:51:21;38.20;;;24.23;;
49578;SDS011;35483;50.828;3.228;2022-12-05T05:53:49;34.00;;;21.88;;
49578;SDS011;35483;50.828;3.228;2022-12-05T05:56:16;38.10;;;22.00;;
49578;SDS011;35483;50.828;3.228;2022-12-05T05:58:44;35.75;;;23.15;;
49578;SDS011;35483;50.828;3.228;2022-12-05T06:03:44;34.63;;;22.40;;
49578;SDS011;35483;50.828;3.228;2022-12-05T06:06:11;33.83;;;22.25;;
49578;SDS011;35483;50.828;3.228;2022-12-05T06:08:39;36.03;;;22.58;;
49578;SDS011;35483;50.828;3.228;2022-12-05T06:11:13;28.63;;;19.73;;
49578;SDS011;35483;50.828;3.228;2022-12-05T06:13:40;31.92;;;20.70;;
49578;SDS011;35483;50.828;3.228;2022-12-05T06:16:07;36.40;;;23.08;;
49578;SDS011;35483;50.828;3.228;2022-12-05T06:18:34;37.00;;;22.55;;
49578;SDS011;35483;50.828;3.228;2022-12-05T06:21:01;34.03;;;22.75;;
49578;SDS011;35483;50.828;3.228;2022-12-05T06:23:28;35.40;;;22.17;;
49578;SDS011;35483;50.828;3.228;2022-12-05T06:25:54;36.75;;;22.80;;
49578;SDS011;35483;50.828;3.228;2022-12-05T06:28:22;35.08;;;22.02;;
49578;SDS011;35483;50.828;3.228;2022-12-05T06:30:49;34.13;;;20.48;;
49578;SDS011;35483;50.828;3.228;2022-12-05T06:33:16;37.00;;;23.88;;
49578;SDS011;35483;50.828;3.228;2022-12-05T06:35:42;32.67;;;22.00;;
49578;SDS011;35483;50.828;3.228;2022-12-05T06:38:09;33.58;;;22.08;;
49578;SDS011;35483;50.828;3.228;2022-12-05T06:40:38;37.83;;;22.65;;
49578;SDS011;35483;50.828;3.228;2022-12-05T06:43:04;33.13;;;22.70;;
49578;SDS011;35483;50.828;3.228;2022-12-05T06:45:30;33.80;;;22.88;;
49578;SDS011;35483;50.828;3.228;2022-12-05T06:47:55;34.13;;;22.98;;
49578;SDS011;35483;50.828;3.228;2022-12-05T06:50:21;34.92;;;21.88;;
49578;SDS011;35483;50.828;3.228;2022-12-05T06:52:47;34.50;;;20.90;;
49578;SDS011;35483;50.828;3.228;2022-12-05T06:55:15;40.92;;;22.55;;
49578;SDS011;35483;50.828;3.228;2022-12-05T06:57:41;32.83;;;21.20;;
49578;SDS011;35483;50.828;3.228;2022-12-05T07:00:07;38.05;;;22.08;;
49578;SDS011;35483;50.828;3.228;2022-12-05T07:02:52;31.20;;;19.85;;
49578;SDS011;35483;50.828;3.228;2022-12-05T07:05:18;31.83;;;20.95;;
49578;SDS011;35483;50.828;3.228;2022-12-05T07:07:44;29.05;;;21.70;;
49578;SDS011;35483;50.828;3.228;2022-12-05T07:10:11;38.00;;;22.58;;
49578;SDS011;35483;50.828;3.228;2022-12-05T07:12:36;32.70;;;21.95;;
49578;SDS011;35483;50.828;3.228;2022-12-05T07:15:02;29.10;;;19.60;;
49578;SDS011;35483;50.828;3.228;2022-12-05T07:17:28;30.58;;;21.13;;
49578;SDS011;35483;50.828;3.228;2022-12-05T07:19:59;36.30;;;22.02;;
49578;SDS011;35483;50.828;3.228;2022-12-05T07:22:25;30.77;;;20.48;;
49578;SDS011;35483;50.828;3.228;2022-12-05T07:24:50;35.50;;;22.75;;
49578;SDS011;35483;50.828;3.228;2022-12-05T07:27:17;36.97;;;22.20;;
49578;SDS011;35483;50.828;3.228;2022-12-05T07:29:43;34.58;;;22.27;;
49578;SDS011;35483;50.828;3.228;2022-12-05T07:32:08;33.95;;;21.25;;
49578;SDS011;35483;50.828;3.228;2022-12-05T07:34:34;35.83;;;22.75;;
49578;SDS011;35483;50.828;3.228;2022-12-05T07:37:02;28.48;;;19.95;;
49578;SDS011;35483;50.828;3.228;2022-12-05T07:39:28;30.88;;;21.15;;
49578;SDS011;35483;50.828;3.228;2022-12-05T07:41:54;32.88;;;21.58;;
49578;SDS011;35483;50.828;3.228;2022-12-05T07:44:21;33.55;;;21.55;;
49578;SDS011;35483;50.828;3.228;2022-12-05T07:46:46;28.98;;;20.13;;
49578;SDS011;35483;50.828;3.228;2022-12-05T07:49:12;34.15;;;21.80;;
49578;SDS011;35483;50.828;3.228;2022-12-05T07:51:39;33.03;;;20.42;;
49578;SDS011;35483;50.828;3.228;2022-12-05T07:54:05;38.25;;;23.25;;
49578;SDS011;35483;50.828;3.228;2022-12-05T07:56:31;36.85;;;21.95;;
49578;SDS011;35483;50.828;3.228;2022-12-05T07:58:57;36.60;;;23.20;;
49578;SDS011;35483;50.828;3.228;2022-12-05T08:01:23;33.97;;;21.90;;
49578;SDS011;35483;50.828;3.228;2022-12-05T08:03:51;37.38;;;22.83;;
49578;SDS011;35483;50.828;3.228;2022-12-05T08:06:19;40.88;;;24.08;;
49578;SDS011;35483;50.828;3.228;2022-12-05T08:08:47;32.67;;;21.60;;
49578;SDS011;35483;50.828;3.228;2022-12-05T08:11:17;39.40;;;23.90;;
49578;SDS011;35483;50.828;3.228;2022-12-05T08:13:47;37.53;;;24.45;;
49578;SDS011;35483;50.828;3.228;2022-12-05T08:16:14;36.60;;;23.48;;
49578;SDS011;35483;50.828;3.228;2022-12-05T08:18:42;38.25;;;23.83;;
49578;SDS011;35483;50.828;3.228;2022-12-05T08:21:17;36.05;;;22.23;;
49578;SDS011;35483;50.828;3.228;2022-12-05T08:23:44;42.92;;;24.55;;
49578;SDS011;35483;50.828;3.228;2022-12-05T08:26:19;36.42;;;22.65;;
49578;SDS011;35483;50.828;3.228;2022-12-05T08:28:52;36.10;;;23.30;;
49578;SDS011;35483;50.828;3.228;2022-12-05T08:31:20;39.53;;;23.33;;
49578;SDS011;35483;50.828;3.228;2022-12-05T08:33:47;38.90;;;24.17;;
49578;SDS011;35483;50.828;3.228;2022-12-05T08:36:14;35.35;;;22.70;;
49578;SDS011;35483;50.828;3.228;2022-12-05T08:38:40;36.13;;;24.25;;
49578;SDS011;35483;50.828;3.228;2022-12-05T08:41:08;37.88;;;24.38;;
49578;SDS011;35483;50.828;3.228;2022-12-05T08:43:38;36.03;;;24.90;;
49578;SDS011;35483;50.828;3.228;2022-12-05T08:46:04;35.45;;;24.35;;
49578;SDS011;35483;50.828;3.228;2022-12-05T08:48:30;40.92;;;27.00;;
49578;SDS011;35483;50.828;3.228;2022-12-05T08:50:58;37.85;;;24.23;;
49578;SDS011;35483;50.828;3.228;2022-12-05T08:53:28;40.08;;;25.25;;
49578;SDS011;35483;50.828;3.228;2022-12-05T08:55:54;36.55;;;23.98;;
49578;SDS011;35483;50.828;3.228;2022-12-05T08:58:19;42.17;;;26.70;;
49578;SDS011;35483;50.828;3.228;2022-12-05T09:00:45;33.30;;;23.50;;
49578;SDS011;35483;50.828;3.228;2022-12-05T09:03:11;45.30;;;26.15;;
49578;SDS011;35483;50.828;3.228;2022-12-05T09:05:37;36.05;;;24.58;;
49578;SDS011;35483;50.828;3.228;2022-12-05T09:08:03;46.15;;;26.60;;
49578;SDS011;35483;50.828;3.228;2022-12-05T09:10:29;46.08;;;26.10;;
49578;SDS011;35483;50.828;3.228;2022-12-05T09:12:54;42.38;;;26.35;;
49578;SDS011;35483;50.828;3.228;2022-12-05T09:15:20;40.33;;;25.83;;
49578;SDS011;35483;50.828;3.228;2022-12-05T09:17:48;45.78;;;28.27;;
49578;SDS011;35483;50.828;3.228;2022-12-05T09:20:14;37.30;;;24.65;;
49578;SDS011;35483;50.828;3.228;2022-12-05T09:22:39;43.10;;;26.25;;
49578;SDS011;35483;50.828;3.228;2022-12-05T09:25:05;36.10;;;22.60;;
49578;SDS011;35483;50.828;3.228;2022-12-05T09:27:32;42.85;;;26.65;;
49578;SDS011;35483;50.828;3.228;2022-12-05T09:29:57;47.15;;;27.63;;
49578;SDS011;35483;50.828;3.228;2022-12-05T09:32:23;45.88;;;26.70;;
49578;SDS011;35483;50.828;3.228;2022-12-05T09:34:49;44.38;;;27.50;;
49578;SDS011;35483;50.828;3.228;2022-12-05T09:37:14;40.85;;;26.80;;
49578;SDS011;35483;50.828;3.228;2022-12-05T09:39:42;52.47;;;29.38;;
49578;SDS011;35483;50.828;3.228;2022-12-05T09:52:38;68.50;;;34.33;;
49578;SDS011;35483;50.828;3.228;2022-12-05T09:55:12;51.53;;;29.95;;
49578;SDS011;35483;50.828;3.228;2022-12-05T09:57:41;58.03;;;33.55;;
49578;SDS011;35483;50.828;3.228;2022-12-05T10:00:12;46.25;;;29.58;;
49578;SDS011;35483;50.828;3.228;2022-12-05T10:02:43;58.70;;;33.97;;
49578;SDS011;35483;50.828;3.228;2022-12-05T10:08:14;53.60;;;30.70;;
49578;SDS011;35483;50.828;3.228;2022-12-05T10:11:02;56.10;;;30.85;;
49578;SDS011;35483;50.828;3.228;2022-12-05T10:16:39;60.53;;;31.23;;
49578;SDS011;35483;50.828;3.228;2022-12-05T10:19:16;57.38;;;30.38;;
49578;SDS011;35483;50.828;3.228;2022-12-05T10:21:55;52.15;;;30.30;;
49578;SDS011;35483;50.828;3.228;2022-12-05T10:24:40;53.88;;;30.63;;
49578;SDS011;35483;50.828;3.228;2022-12-05T10:27:17;60.03;;;31.23;;
49578;SDS011;35483;50.828;3.228;2022-12-05T10:29:47;51.28;;;29.20;;
49578;SDS011;35483;50.828;3.228;2022-12-05T10:32:23;46.97;;;26.85;;
49578;SDS011;35483;50.828;3.228;2022-12-05T10:38:02;57.58;;;31.38;;
49578;SDS011;35483;50.828;3.228;2022-12-05T10:40:48;48.23;;;28.53;;
49578;SDS011;35483;50.828;3.228;2022-12-05T10:43:18;48.10;;;28.85;;
49578;SDS011;35483;50.828;3.228;2022-12-05T10:45:49;61.17;;;32.45;;
49578;SDS011;35483;50.828;3.228;2022-12-05T10:48:16;47.35;;;29.88;;
49578;SDS011;35483;50.828;3.228;2022-12-05T10:50:44;49.50;;;29.00;;
49578;SDS011;35483;50.828;3.228;2022-12-05T10:53:14;41.17;;;28.40;;
49578;SDS011;35483;50.828;3.228;2022-12-05T10:55:44;46.75;;;27.95;;
49578;SDS011;35483;50.828;3.228;2022-12-05T10:58:13;44.45;;;27.75;;
49578;SDS011;35483;50.828;3.228;2022-12-05T11:00:41;46.00;;;26.05;;
49578;SDS011;35483;50.828;3.228;2022-12-05T11:03:27;43.95;;;27.13;;
49578;SDS011;35483;50.828;3.228;2022-12-05T11:06:22;39.00;;;24.73;;
49578;SDS011;35483;50.828;3.228;2022-12-05T11:09:04;44.10;;;25.92;;
49578;SDS011;35483;50.828;3.228;2022-12-05T11:11:41;45.65;;;28.08;;
49578;SDS011;35483;50.828;3.228;2022-12-05T11:14:21;45.03;;;26.65;;
49578;SDS011;35483;50.828;3.228;2022-12-05T11:16:52;42.88;;;27.50;;
49578;SDS011;35483;50.828;3.228;2022-12-05T11:21:45;43.58;;;26.00;;
49578;SDS011;35483;50.828;3.228;2022-12-05T11:24:22;44.15;;;24.35;;
49578;SDS011;35483;50.828;3.228;2022-12-05T11:26:52;40.65;;;25.70;;
49578;SDS011;35483;50.828;3.228;2022-12-05T11:29:32;47.28;;;26.90;;
49578;SDS011;35483;50.828;3.228;2022-12-05T11:31:59;40.58;;;23.08;;
49578;SDS011;35483;50.828;3.228;2022-12-05T11:34:28;39.15;;;24.13;;
49578;SDS011;35483;50.828;3.228;2022-12-05T11:37:03;36.10;;;22.38;;
49578;SDS011;35483;50.828;3.228;2022-12-05T11:39:36;41.72;;;25.10;;
49578;SDS011;35483;50.828;3.228;2022-12-05T11:42:15;39.55;;;24.02;;
49578;SDS011;35483;50.828;3.228;2022-12-05T11:53:15;33.70;;;21.70;;
49578;SDS011;35483;50.828;3.228;2022-12-05T11:59:35;31.42;;;20.50;;
49578;SDS011;35483;50.828;3.228;2022-12-05T12:18:48;30.48;;;20.48;;
49578;SDS011;35483;50.828;3.228;2022-12-05T12:21:44;34.53;;;20.75;;
49578;SDS011;35483;50.828;3.228;2022-12-05T12:38:23;36.55;;;21.17;;
49578;SDS011;35483;50.828;3.228;2022-12-05T12:52:09;33.30;;;20.80;;
49578;SDS011;35483;50.828;3.228;2022-12-05T13:02:46;34.13;;;21.45;;
49578;SDS011;35483;50.828;3.228;2022-12-05T13:05:33;31.67;;;20.73;;
49578;SDS011;35483;50.828;3.228;2022-12-05T13:08:05;33.85;;;20.90;;
49578;SDS011;35483;50.828;3.228;2022-12-05T13:10:42;33.70;;;20.83;;
49578;SDS011;35483;50.828;3.228;2022-12-05T13:13:13;35.33;;;21.08;;
49578;SDS011;35483;50.828;3.228;2022-12-05T13:15:48;32.28;;;20.20;;
49578;SDS011;35483;50.828;3.228;2022-12-05T13:18:16;37.08;;;22.50;;
49578;SDS011;35483;50.828;3.228;2022-12-05T13:20:50;30.98;;;19.23;;
49578;SDS011;35483;50.828;3.228;2022-12-05T13:23:22;34.40;;;21.05;;
49578;SDS011;35483;50.828;3.228;2022-12-05T13:25:51;32.15;;;20.90;;
49578;SDS011;35483;50.828;3.228;2022-12-05T13:28:26;32.33;;;19.50;;
49578;SDS011;35483;50.828;3.228;2022-12-05T13:30:58;29.88;;;19.38;;
49578;SDS011;35483;50.828;3.228;2022-12-05T13:33:34;33.28;;;21.02;;
49578;SDS011;35483;50.828;3.228;2022-12-05T13:36:08;29.42;;;19.10;;
49578;SDS011;35483;50.828;3.228;2022-12-05T13:39:03;30.90;;;19.67;;
49578;SDS011;35483;50.828;3.228;2022-12-05T13:42:01;35.30;;;21.88;;
49578;SDS011;35483;50.828;3.228;2022-12-05T13:49:54;32.28;;;19.42;;
49578;SDS011;35483;50.828;3.228;2022-12-05T13:52:27;35.25;;;21.50;;
49578;SDS011;35483;50.828;3.228;2022-12-05T13:54:57;30.60;;;20.15;;
49578;SDS011;35483;50.828;3.228;2022-12-05T14:03:08;31.15;;;20.92;;
49578;SDS011;35483;50.828;3.228;2022-12-05T14:05:36;31.60;;;20.27;;
49578;SDS011;35483;50.828;3.228;2022-12-05T14:15:46;31.70;;;19.15;;
49578;SDS011;35483;50.828;3.228;2022-12-05T14:34:27;34.47;;;20.58;;
49578;SDS011;35483;50.828;3.228;2022-12-05T14:39:41;33.65;;;21.38;;
49578;SDS011;35483;50.828;3.228;2022-12-05T14:42:18;33.92;;;21.02;;
49578;SDS011;35483;50.828;3.228;2022-12-05T14:44:48;30.88;;;20.05;;
49578;SDS011;35483;50.828;3.228;2022-12-05T14:47:20;34.67;;;20.73;;
49578;SDS011;35483;50.828;3.228;2022-12-05T14:52:23;30.50;;;20.95;;
49578;SDS011;35483;50.828;3.228;2022-12-05T14:54:51;31.65;;;18.20;;
49578;SDS011;35483;50.828;3.228;2022-12-05T14:57:20;33.30;;;19.50;;
49578;SDS011;35483;50.828;3.228;2022-12-05T14:59:48;29.20;;;20.63;;
49578;SDS011;35483;50.828;3.228;2022-12-05T15:02:23;34.65;;;21.70;;
49578;SDS011;35483;50.828;3.228;2022-12-05T15:04:55;27.13;;;18.88;;
49578;SDS011;35483;50.828;3.228;2022-12-05T15:07:30;27.92;;;20.75;;
49578;SDS011;35483;50.828;3.228;2022-12-05T15:12:37;28.70;;;19.95;;
49578;SDS011;35483;50.828;3.228;2022-12-05T15:17:53;24.27;;;17.25;;
49578;SDS011;35483;50.828;3.228;2022-12-05T15:23:01;29.95;;;18.10;;
49578;SDS011;35483;50.828;3.228;2022-12-05T15:25:31;22.88;;;16.77;;
49578;SDS011;35483;50.828;3.228;2022-12-05T15:27:58;27.52;;;18.67;;
49578;SDS011;35483;50.828;3.228;2022-12-05T15:30:26;28.48;;;19.35;;
49578;SDS011;35483;50.828;3.228;2022-12-05T15:32:53;29.23;;;18.77;;
49578;SDS011;35483;50.828;3.228;2022-12-05T15:35:19;32.33;;;22.25;;
49578;SDS011;35483;50.828;3.228;2022-12-05T15:37:53;33.45;;;20.80;;
49578;SDS011;35483;50.828;3.228;2022-12-05T15:40:20;27.88;;;19.08;;
49578;SDS011;35483;50.828;3.228;2022-12-05T15:42:51;28.98;;;18.67;;
49578;SDS011;35483;50.828;3.228;2022-12-05T15:45:19;29.33;;;20.88;;
49578;SDS011;35483;50.828;3.228;2022-12-05T15:48:11;37.00;;;23.55;;
49578;SDS011;35483;50.828;3.228;2022-12-05T15:53:12;30.25;;;20.13;;
49578;SDS011;35483;50.828;3.228;2022-12-05T15:55:55;33.22;;;20.13;;
49578;SDS011;35483;50.828;3.228;2022-12-05T15:58:29;33.97;;;18.48;;
49578;SDS011;35483;50.828;3.228;2022-12-05T16:00:57;31.50;;;21.05;;
49578;SDS011;35483;50.828;3.228;2022-12-05T16:04:13;30.52;;;19.48;;
49578;SDS011;35483;50.828;3.228;2022-12-05T16:08:56;30.55;;;19.45;;
49578;SDS011;35483;50.828;3.228;2022-12-05T16:11:23;33.13;;;22.02;;
49578;SDS011;35483;50.828;3.228;2022-12-05T16:13:51;32.67;;;21.58;;
49578;SDS011;35483;50.828;3.228;2022-12-05T16:16:26;30.23;;;20.83;;
49578;SDS011;35483;50.828;3.228;2022-12-05T16:18:55;31.65;;;21.52;;
49578;SDS011;35483;50.828;3.228;2022-12-05T16:21:33;33.25;;;21.63;;
49578;SDS011;35483;50.828;3.228;2022-12-05T16:24:05;30.90;;;20.52;;
49578;SDS011;35483;50.828;3.228;2022-12-05T16:26:39;33.70;;;21.20;;
49578;SDS011;35483;50.828;3.228;2022-12-05T16:29:05;37.00;;;21.77;;
49578;SDS011;35483;50.828;3.228;2022-12-05T16:31:33;33.28;;;22.23;;
49578;SDS011;35483;50.828;3.228;2022-12-05T16:34:01;32.15;;;23.23;;
49578;SDS011;35483;50.828;3.228;2022-12-05T16:36:28;35.30;;;23.50;;
49578;SDS011;35483;50.828;3.228;2022-12-05T16:39:01;36.42;;;23.33;;
49578;SDS011;35483;50.828;3.228;2022-12-05T16:44:02;37.03;;;23.50;;
49578;SDS011;35483;50.828;3.228;2022-12-05T16:49:17;36.05;;;25.38;;
49578;SDS011;35483;50.828;3.228;2022-12-05T16:54:35;33.40;;;22.20;;
49578;SDS011;35483;50.828;3.228;2022-12-05T16:57:01;31.52;;;21.17;;
49578;SDS011;35483;50.828;3.228;2022-12-05T16:59:32;30.65;;;20.98;;
49578;SDS011;35483;50.828;3.228;2022-12-05T17:01:59;29.05;;;20.80;;
49578;SDS011;35483;50.828;3.228;2022-12-05T17:04:26;32.95;;;22.73;;
49578;SDS011;35483;50.828;3.228;2022-12-05T17:06:52;32.28;;;21.00;;
49578;SDS011;35483;50.828;3.228;2022-12-05T17:09:18;31.60;;;21.00;;
49578;SDS011;35483;50.828;3.228;2022-12-05T17:11:44;28.75;;;19.92;;
49578;SDS011;35483;50.828;3.228;2022-12-05T17:14:12;28.77;;;20.17;;
49578;SDS011;35483;50.828;3.228;2022-12-05T17:16:40;27.30;;;18.83;;
49578;SDS011;35483;50.828;3.228;2022-12-05T17:19:06;30.80;;;20.65;;
49578;SDS011;35483;50.828;3.228;2022-12-05T17:21:32;32.17;;;20.67;;
49578;SDS011;35483;50.828;3.228;2022-12-05T17:23:59;32.05;;;24.00;;
49578;SDS011;35483;50.828;3.228;2022-12-05T17:26:25;35.28;;;28.50;;
49578;SDS011;35483;50.828;3.228;2022-12-05T17:28:51;34.90;;;27.23;;
49578;SDS011;35483;50.828;3.228;2022-12-05T17:31:18;37.60;;;28.20;;
49578;SDS011;35483;50.828;3.228;2022-12-05T17:33:48;31.00;;;24.00;;
49578;SDS011;35483;50.828;3.228;2022-12-05T17:36:15;55.13;;;43.80;;
49578;SDS011;35483;50.828;3.228;2022-12-05T17:38:41;50.10;;;36.42;;
49578;SDS011;35483;50.828;3.228;2022-12-05T17:41:09;37.88;;;25.98;;
49578;SDS011;35483;50.828;3.228;2022-12-05T17:43:40;42.08;;;28.52;;
49578;SDS011;35483;50.828;3.228;2022-12-05T17:46:05;39.88;;;29.60;;
49578;SDS011;35483;50.828;3.228;2022-12-05T17:48:32;39.85;;;29.85;;